createdAt,value
2018-07-22T00:00:09.420Z,970.78
2018-07-22T00:01:09.415Z,970.78
2018-07-22T00:02:09.416Z,970.77
2018-07-22T00:03:09.411Z,970.81
2018-07-22T00:04:09.415Z,970.84
2018-07-22T00:05:09.409Z,970.83
2018-07-22T00:06:09.409Z,970.84
2018-07-22T00:07:09.402Z,970.84
2018-07-22T00:08:09.400Z,970.83
2018-07-22T00:09:09.398Z,970.87
2018-07-22T00:10:09.395Z,970.84
2018-07-22T00:11:09.391Z,970.83
2018-07-22T00:12:09.388Z,970.79
2018-07-22T00:13:09.388Z,970.82
2018-07-22T00:14:09.455Z,970.78
2018-07-22T00:15:09.382Z,970.79
2018-07-22T00:16:09.387Z,970.78
2018-07-22T00:17:09.375Z,970.77
2018-07-22T00:18:09.380Z,970.78
2018-07-22T00:19:09.376Z,970.79
2018-07-22T00:20:09.370Z,970.80
2018-07-22T00:21:09.368Z,970.83
2018-07-22T00:22:09.363Z,970.82
2018-07-22T00:23:09.363Z,970.81
2018-07-22T00:24:09.360Z,970.81
2018-07-22T00:25:09.355Z,970.81
2018-07-22T00:26:09.356Z,970.78
2018-07-22T00:27:09.354Z,970.78
2018-07-22T00:28:09.354Z,970.77
2018-07-22T00:29:09.373Z,970.79
2018-07-22T00:30:09.345Z,970.75
2018-07-22T00:31:09.348Z,970.72
2018-07-22T00:32:09.345Z,970.71
2018-07-22T00:33:09.339Z,970.70
2018-07-22T00:34:09.336Z,970.68
2018-07-22T00:35:09.334Z,970.68
2018-07-22T00:36:09.330Z,970.68
2018-07-22T00:37:09.329Z,970.68
2018-07-22T00:38:09.330Z,970.68
2018-07-22T00:39:09.328Z,970.68
2018-07-22T00:40:09.317Z,970.66
2018-07-22T00:41:09.323Z,970.65
2018-07-22T00:42:09.316Z,970.66
2018-07-22T00:43:09.312Z,970.71
2018-07-22T00:44:09.315Z,970.71
2018-07-22T00:45:09.309Z,970.71
2018-07-22T00:46:09.310Z,970.72
2018-07-22T00:47:09.305Z,970.72
2018-07-22T00:48:09.298Z,970.69
2018-07-22T00:49:09.296Z,970.69
2018-07-22T00:50:09.296Z,970.71
2018-07-22T00:51:09.291Z,970.68
2018-07-22T00:52:09.293Z,970.71
2018-07-22T00:53:09.286Z,970.72
2018-07-22T00:54:09.285Z,970.73
2018-07-22T00:55:09.281Z,970.75
2018-07-22T00:56:09.283Z,970.77
2018-07-22T00:57:09.279Z,970.77
2018-07-22T00:58:09.275Z,970.75
2018-07-22T00:59:09.274Z,970.76
2018-07-22T01:00:09.378Z,970.77
2018-07-22T01:01:09.268Z,970.79
2018-07-22T01:02:09.263Z,970.78
2018-07-22T01:03:09.260Z,970.76
2018-07-22T01:04:09.257Z,970.75
2018-07-22T01:05:09.255Z,970.70
2018-07-22T01:06:09.253Z,970.71
2018-07-22T01:07:09.250Z,970.68
2018-07-22T01:08:09.247Z,970.69
2018-07-22T01:09:09.243Z,970.67
2018-07-22T01:10:09.244Z,970.62
2018-07-22T01:11:09.240Z,970.62
2018-07-22T01:12:09.241Z,970.60
2018-07-22T01:13:09.238Z,970.55
2018-07-22T01:14:09.231Z,970.55
2018-07-22T01:15:09.230Z,970.56
2018-07-22T01:16:09.231Z,970.54
2018-07-22T01:17:09.222Z,970.57
2018-07-22T01:18:09.225Z,970.54
2018-07-22T01:19:09.219Z,970.59
2018-07-22T01:20:09.217Z,970.58
2018-07-22T01:21:09.211Z,970.60
2018-07-22T01:22:09.208Z,970.59
2018-07-22T01:23:09.209Z,970.61
2018-07-22T01:24:09.203Z,970.59
2018-07-22T01:25:09.200Z,970.55
2018-07-22T01:26:09.197Z,970.60
2018-07-22T01:27:09.196Z,970.59
2018-07-22T01:28:09.193Z,970.61
2018-07-22T01:29:09.195Z,970.62
2018-07-22T01:30:09.191Z,970.60
2018-07-22T01:31:09.191Z,970.60
2018-07-22T01:32:09.179Z,970.60
2018-07-22T01:33:09.181Z,970.61
2018-07-22T01:34:09.176Z,970.62
2018-07-22T01:35:09.172Z,970.60
2018-07-22T01:36:09.175Z,970.59
2018-07-22T01:37:09.164Z,970.61
2018-07-22T01:38:09.164Z,970.57
2018-07-22T01:39:09.163Z,970.55
2018-07-22T01:40:09.160Z,970.51
2018-07-22T01:41:09.156Z,970.52
2018-07-22T01:42:09.151Z,970.53
2018-07-22T01:43:09.183Z,970.54
2018-07-22T01:44:09.147Z,970.57
2018-07-22T01:45:09.143Z,970.59
2018-07-22T01:46:09.141Z,970.58
2018-07-22T01:47:09.138Z,970.60
2018-07-22T01:48:09.142Z,970.58
2018-07-22T01:49:09.137Z,970.59
2018-07-22T01:50:09.131Z,970.57
2018-07-22T01:51:09.127Z,970.58
2018-07-22T01:52:09.126Z,970.60
2018-07-22T01:53:09.121Z,970.61
2018-07-22T01:54:09.117Z,970.59
2018-07-22T01:55:09.118Z,970.57
2018-07-22T01:56:09.114Z,970.60
2018-07-22T01:57:09.114Z,970.62
2018-07-22T01:58:09.112Z,970.61
2018-07-22T01:59:09.104Z,970.64
2018-07-22T02:00:09.100Z,970.63
2018-07-22T02:01:09.096Z,970.69
2018-07-22T02:02:09.097Z,970.66
2018-07-22T02:03:09.091Z,970.68
2018-07-22T02:04:09.088Z,970.72
2018-07-22T02:05:09.085Z,970.69
2018-07-22T02:06:09.083Z,970.73
2018-07-22T02:07:09.080Z,970.72
2018-07-22T02:08:09.076Z,970.74
2018-07-22T02:09:09.072Z,970.74
2018-07-22T02:10:09.075Z,970.75
2018-07-22T02:11:09.067Z,970.71
2018-07-22T02:12:09.070Z,970.77
2018-07-22T02:13:09.061Z,970.73
2018-07-22T02:14:09.065Z,970.74
2018-07-22T02:15:09.066Z,970.78
2018-07-22T02:16:09.051Z,970.79
2018-07-22T02:17:09.049Z,970.80
2018-07-22T02:18:09.047Z,970.81
2018-07-22T02:19:09.044Z,970.83
2018-07-22T02:20:09.039Z,970.80
2018-07-22T02:21:09.037Z,970.80
2018-07-22T02:22:09.036Z,970.79
2018-07-22T02:23:09.035Z,970.82
2018-07-22T02:24:09.030Z,970.78
2018-07-22T02:25:09.029Z,970.78
2018-07-22T02:26:09.022Z,970.78
2018-07-22T02:27:09.020Z,970.73
2018-07-22T02:28:09.021Z,970.73
2018-07-22T02:29:09.016Z,970.74
2018-07-22T02:30:09.012Z,970.76
2018-07-22T02:31:09.010Z,970.71
2018-07-22T02:32:09.006Z,970.71
2018-07-22T02:33:09.005Z,970.72
2018-07-22T02:34:09.001Z,970.74
2018-07-22T02:35:09.000Z,970.69
2018-07-22T02:36:08.995Z,970.74
2018-07-22T02:37:08.996Z,970.73
2018-07-22T02:38:08.989Z,970.74
2018-07-22T02:39:08.989Z,970.72
2018-07-22T02:40:08.984Z,970.74
2018-07-22T02:41:08.981Z,970.74
2018-07-22T02:42:08.977Z,970.76
2018-07-22T02:43:08.975Z,970.75
2018-07-22T02:44:08.972Z,970.76
2018-07-22T02:45:08.969Z,970.77
2018-07-22T02:46:08.970Z,970.81
2018-07-22T02:47:08.971Z,970.76
2018-07-22T02:48:08.965Z,970.78
2018-07-22T02:49:08.957Z,970.78
2018-07-22T02:50:08.958Z,970.73
2018-07-22T02:51:08.955Z,970.74
2018-07-22T02:52:08.949Z,970.73
2018-07-22T02:53:08.954Z,970.77
2018-07-22T02:54:08.947Z,970.75
2018-07-22T02:55:08.942Z,970.72
2018-07-22T02:56:08.938Z,970.72
2018-07-22T02:57:08.939Z,970.72
2018-07-22T02:58:08.933Z,970.72
2018-07-22T02:59:08.932Z,970.73
2018-07-22T03:00:08.935Z,970.69
2018-07-22T03:01:08.925Z,970.70
2018-07-22T03:02:08.923Z,970.68
2018-07-22T03:03:08.935Z,970.66
2018-07-22T03:04:08.920Z,970.72
2018-07-22T03:05:08.914Z,970.74
2018-07-22T03:06:08.912Z,970.74
2018-07-22T03:07:08.914Z,970.76
2018-07-22T03:08:08.906Z,970.74
2018-07-22T03:09:08.908Z,970.77
2018-07-22T03:10:08.901Z,970.74
2018-07-22T03:11:08.895Z,970.74
2018-07-22T03:12:08.903Z,970.72
2018-07-22T03:13:08.898Z,970.73
2018-07-22T03:14:08.885Z,970.73
2018-07-22T03:15:08.886Z,970.75
2018-07-22T03:16:08.882Z,970.74
2018-07-22T03:17:08.884Z,970.74
2018-07-22T03:18:08.877Z,970.75
2018-07-22T03:19:08.882Z,970.75
2018-07-22T03:20:08.874Z,970.73
2018-07-22T03:21:08.868Z,970.77
2018-07-22T03:22:08.864Z,970.80
2018-07-22T03:23:08.866Z,970.79
2018-07-22T03:24:08.863Z,970.76
2018-07-22T03:25:08.855Z,970.75
2018-07-22T03:26:08.853Z,970.78
2018-07-22T03:27:08.850Z,970.77
2018-07-22T03:28:08.847Z,970.78
2018-07-22T03:29:08.843Z,970.76
2018-07-22T03:30:08.848Z,970.80
2018-07-22T03:31:08.846Z,970.75
2018-07-22T03:32:08.840Z,970.76
2018-07-22T03:33:08.833Z,970.74
2018-07-22T03:34:08.828Z,970.76
2018-07-22T03:35:08.832Z,970.73
2018-07-22T03:36:08.822Z,970.76
2018-07-22T03:37:08.819Z,970.75
2018-07-22T03:38:08.823Z,970.77
2018-07-22T03:39:08.816Z,970.75
2018-07-22T03:40:08.812Z,970.74
2018-07-22T03:41:08.808Z,970.76
2018-07-22T03:42:08.805Z,970.74
2018-07-22T03:43:08.802Z,970.76
2018-07-22T03:44:08.798Z,970.75
2018-07-22T03:45:08.801Z,970.75
2018-07-22T03:46:08.792Z,970.77
2018-07-22T03:47:08.793Z,970.75
2018-07-22T03:48:08.787Z,970.78
2018-07-22T03:49:08.785Z,970.78
2018-07-22T03:50:08.780Z,970.76
2018-07-22T03:51:08.792Z,970.79
2018-07-22T03:52:08.776Z,970.77
2018-07-22T03:53:08.774Z,970.75
2018-07-22T03:54:08.769Z,970.76
2018-07-22T03:55:08.765Z,970.77
2018-07-22T03:56:08.761Z,970.80
2018-07-22T03:57:08.764Z,970.77
2018-07-22T03:58:08.757Z,970.80
2018-07-22T03:59:08.753Z,970.82
2018-07-22T04:00:08.756Z,970.84
2018-07-22T04:01:08.750Z,970.84
2018-07-22T04:02:08.744Z,970.84
2018-07-22T04:03:08.744Z,970.85
2018-07-22T04:04:08.744Z,970.85
2018-07-22T04:05:08.740Z,970.88
2018-07-22T04:06:08.731Z,970.84
2018-07-22T04:07:08.734Z,970.86
2018-07-22T04:08:08.725Z,970.87
2018-07-22T04:09:08.733Z,970.86
2018-07-22T04:10:08.725Z,970.87
2018-07-22T04:11:08.719Z,970.83
2018-07-22T04:12:08.720Z,970.87
2018-07-22T04:13:08.711Z,970.83
2018-07-22T04:14:08.712Z,970.87
2018-07-22T04:15:08.705Z,970.86
2018-07-22T04:16:08.706Z,970.87
2018-07-22T04:17:08.705Z,970.87
2018-07-22T04:18:08.698Z,970.88
2018-07-22T04:19:08.695Z,970.87
2018-07-22T04:20:08.694Z,970.91
2018-07-22T04:21:08.691Z,970.89
2018-07-22T04:22:08.689Z,970.89
2018-07-22T04:23:08.682Z,970.92
2018-07-22T04:24:08.678Z,970.93
2018-07-22T04:25:08.674Z,970.94
2018-07-22T04:26:08.672Z,970.99
2018-07-22T04:27:08.670Z,970.97
2018-07-22T04:28:08.667Z,970.96
2018-07-22T04:29:08.663Z,970.98
2018-07-22T04:30:08.658Z,970.98
2018-07-22T04:31:08.662Z,970.95
2018-07-22T04:32:08.654Z,970.98
2018-07-22T04:33:08.650Z,970.97
2018-07-22T04:34:08.648Z,971.01
2018-07-22T04:35:08.642Z,970.99
2018-07-22T04:36:08.645Z,970.97
2018-07-22T04:37:08.642Z,971.01
2018-07-22T04:38:08.636Z,970.99
2018-07-22T04:39:08.634Z,971.03
2018-07-22T04:40:08.628Z,971.03
2018-07-22T04:41:08.631Z,971.05
2018-07-22T04:42:08.631Z,970.99
2018-07-22T04:43:08.622Z,971.05
2018-07-22T04:44:08.621Z,971.07
2018-07-22T04:45:08.618Z,971.12
2018-07-22T04:46:08.614Z,971.11
2018-07-22T04:47:08.610Z,971.12
2018-07-22T04:48:08.612Z,971.11
2018-07-22T04:49:08.610Z,971.11
2018-07-22T04:50:08.604Z,971.10
2018-07-22T04:51:08.603Z,971.11
2018-07-22T04:52:08.597Z,971.12
2018-07-22T04:53:08.598Z,971.16
2018-07-22T04:54:08.592Z,971.15
2018-07-22T04:55:08.590Z,971.17
2018-07-22T04:56:08.588Z,971.17
2018-07-22T04:57:08.589Z,971.18
2018-07-22T04:58:08.588Z,971.18
2018-07-22T04:59:08.578Z,971.19
2018-07-22T05:00:08.580Z,971.18
2018-07-22T05:01:08.573Z,971.20
2018-07-22T05:02:08.578Z,971.22
2018-07-22T05:03:08.570Z,971.24
2018-07-22T05:04:08.567Z,971.23
2018-07-22T05:05:08.566Z,971.23
2018-07-22T05:06:08.562Z,971.26
2018-07-22T05:07:08.561Z,971.26
2018-07-22T05:08:08.556Z,971.23
2018-07-22T05:09:08.554Z,971.26
2018-07-22T05:10:08.557Z,971.21
2018-07-22T05:11:08.548Z,971.24
2018-07-22T05:12:08.545Z,971.24
2018-07-22T05:13:08.541Z,971.24
2018-07-22T05:14:08.542Z,971.29
2018-07-22T05:15:08.541Z,971.31
2018-07-22T05:16:08.535Z,971.30
2018-07-22T05:17:08.534Z,971.33
2018-07-22T05:18:08.530Z,971.35
2018-07-22T05:19:08.528Z,971.33
2018-07-22T05:20:08.527Z,971.33
2018-07-22T05:21:08.520Z,971.35
2018-07-22T05:22:08.517Z,971.33
2018-07-22T05:23:08.517Z,971.29
2018-07-22T05:24:08.509Z,971.26
2018-07-22T05:25:08.509Z,971.26
2018-07-22T05:26:08.511Z,971.26
2018-07-22T05:27:08.509Z,971.32
2018-07-22T05:28:08.498Z,971.29
2018-07-22T05:29:08.497Z,971.35
2018-07-22T05:30:08.495Z,971.34
2018-07-22T05:31:08.497Z,971.34
2018-07-22T05:32:08.489Z,971.36
2018-07-22T05:33:08.486Z,971.39
2018-07-22T05:34:08.485Z,971.39
2018-07-22T05:35:08.481Z,971.37
2018-07-22T05:36:08.564Z,971.38
2018-07-22T05:37:08.478Z,971.41
2018-07-22T05:38:08.475Z,971.41
2018-07-22T05:39:08.467Z,971.39
2018-07-22T05:40:08.464Z,971.42
2018-07-22T05:41:08.461Z,971.35
2018-07-22T05:42:08.476Z,971.38
2018-07-22T05:43:08.457Z,971.40
2018-07-22T05:44:08.455Z,971.40
2018-07-22T05:45:08.451Z,971.45
2018-07-22T05:46:08.455Z,971.43
2018-07-22T05:47:08.453Z,971.47
2018-07-22T05:48:08.450Z,971.48
2018-07-22T05:49:08.444Z,971.46
2018-07-22T05:50:08.436Z,971.46
2018-07-22T05:51:08.443Z,971.51
2018-07-22T05:52:08.437Z,971.54
2018-07-22T05:53:08.431Z,971.56
2018-07-22T05:54:08.430Z,971.53
2018-07-22T05:55:08.425Z,971.56
2018-07-22T05:56:08.428Z,971.50
2018-07-22T05:57:08.418Z,971.55
2018-07-22T05:58:08.422Z,971.55
2018-07-22T05:59:08.414Z,971.56
2018-07-22T06:00:08.416Z,971.56
2018-07-22T06:01:08.409Z,971.56
2018-07-22T06:02:08.406Z,971.53
2018-07-22T06:03:08.420Z,971.58
2018-07-22T06:04:08.402Z,971.55
2018-07-22T06:05:08.397Z,971.52
2018-07-22T06:06:08.401Z,971.54
2018-07-22T06:07:08.397Z,971.56
2018-07-22T06:08:08.397Z,971.53
2018-07-22T06:09:08.393Z,971.59
2018-07-22T06:10:08.386Z,971.58
2018-07-22T06:11:08.384Z,971.58
2018-07-22T06:12:08.403Z,971.59
2018-07-22T06:13:08.379Z,971.63
2018-07-22T06:14:08.385Z,971.63
2018-07-22T06:15:08.376Z,971.62
2018-07-22T06:16:08.373Z,971.64
2018-07-22T06:17:08.373Z,971.61
2018-07-22T06:18:08.369Z,971.60
2018-07-22T06:19:08.372Z,971.62
2018-07-22T06:20:08.368Z,971.61
2018-07-22T06:21:08.362Z,971.59
2018-07-22T06:22:08.361Z,971.59
2018-07-22T06:23:08.362Z,971.57
2018-07-22T06:24:08.363Z,971.58
2018-07-22T06:25:08.359Z,971.61
2018-07-22T06:26:08.355Z,971.64
2018-07-22T06:27:08.356Z,971.63
2018-07-22T06:28:08.349Z,971.66
2018-07-22T06:29:08.353Z,971.64
2018-07-22T06:30:08.343Z,971.64
2018-07-22T06:31:08.342Z,971.62
2018-07-22T06:32:08.341Z,971.64
2018-07-22T06:33:08.339Z,971.60
2018-07-22T06:34:08.339Z,971.60
2018-07-22T06:35:08.399Z,971.60
2018-07-22T06:36:08.335Z,971.61
2018-07-22T06:37:08.336Z,971.59
2018-07-22T06:38:08.331Z,971.60
2018-07-22T06:39:08.330Z,971.61
2018-07-22T06:40:08.325Z,971.64
2018-07-22T06:41:08.357Z,971.58
2018-07-22T06:42:08.323Z,971.57
2018-07-22T06:43:08.328Z,971.60
2018-07-22T06:44:08.317Z,971.59
2018-07-22T06:45:08.320Z,971.60
2018-07-22T06:46:08.344Z,971.57
2018-07-22T06:47:08.313Z,971.61
2018-07-22T06:48:08.314Z,971.60
2018-07-22T06:49:08.312Z,971.57
2018-07-22T06:50:08.310Z,971.56
2018-07-22T06:51:08.313Z,971.57
2018-07-22T06:52:08.310Z,971.56
2018-07-22T06:53:08.305Z,971.54
2018-07-22T06:54:08.311Z,971.51
2018-07-22T06:55:08.300Z,971.50
2018-07-22T06:56:08.300Z,971.52
2018-07-22T06:57:08.330Z,971.52
2018-07-22T06:58:08.296Z,971.51
2018-07-22T06:59:08.304Z,971.50
2018-07-22T07:00:08.299Z,971.49
2018-07-22T07:01:08.298Z,971.47
2018-07-22T07:02:08.294Z,971.48
2018-07-22T07:03:08.299Z,971.49
2018-07-22T07:04:08.296Z,971.50
2018-07-22T07:05:08.384Z,971.51
2018-07-22T07:06:08.294Z,971.48
2018-07-22T07:07:08.288Z,971.48
2018-07-22T07:08:08.287Z,971.48
2018-07-22T07:09:08.291Z,971.47
2018-07-22T07:10:08.285Z,971.45
2018-07-22T07:11:08.284Z,971.46
2018-07-22T07:12:08.281Z,971.46
2018-07-22T07:13:08.281Z,971.45
2018-07-22T07:14:08.282Z,971.45
2018-07-22T07:15:08.282Z,971.44
2018-07-22T07:16:08.279Z,971.49
2018-07-22T07:17:08.286Z,971.47
2018-07-22T07:18:08.281Z,971.49
2018-07-22T07:19:08.279Z,971.48
2018-07-22T07:20:08.279Z,971.47
2018-07-22T07:21:08.279Z,971.49
2018-07-22T07:22:08.276Z,971.52
2018-07-22T07:23:08.276Z,971.51
2018-07-22T07:24:08.277Z,971.53
2018-07-22T07:25:08.275Z,971.50
2018-07-22T07:26:08.278Z,971.52
2018-07-22T07:27:08.285Z,971.51
2018-07-22T07:28:08.275Z,971.50
2018-07-22T07:29:08.277Z,971.52
2018-07-22T07:30:08.276Z,971.50
2018-07-22T07:31:08.278Z,971.53
2018-07-22T07:32:08.277Z,971.52
2018-07-22T07:33:08.282Z,971.51
2018-07-22T07:34:08.273Z,971.53
2018-07-22T07:35:08.273Z,971.51
2018-07-22T07:36:08.279Z,971.49
2018-07-22T07:37:08.274Z,971.50
2018-07-22T07:38:08.278Z,971.45
2018-07-22T07:39:08.279Z,971.48
2018-07-22T07:40:08.273Z,971.50
2018-07-22T07:41:08.281Z,971.47
2018-07-22T07:42:08.276Z,971.46
2018-07-22T07:43:08.279Z,971.46
2018-07-22T07:44:08.282Z,971.47
2018-07-22T07:45:08.280Z,971.47
2018-07-22T07:46:08.282Z,971.48
2018-07-22T07:47:08.285Z,971.48
2018-07-22T07:48:08.281Z,971.49
2018-07-22T07:49:08.281Z,971.50
2018-07-22T07:50:08.288Z,971.53
2018-07-22T07:51:08.285Z,971.49
2018-07-22T07:52:08.289Z,971.50
2018-07-22T07:53:08.284Z,971.53
2018-07-22T07:54:08.291Z,971.51
2018-07-22T07:55:08.286Z,971.50
2018-07-22T07:56:08.289Z,971.51
2018-07-22T07:57:08.288Z,971.48
2018-07-22T07:58:08.296Z,971.49
2018-07-22T07:59:08.296Z,971.51
2018-07-22T08:00:08.293Z,971.50
2018-07-22T08:01:08.296Z,971.51
2018-07-22T08:02:08.300Z,971.47
2018-07-22T08:03:08.298Z,971.47
2018-07-22T08:04:08.297Z,971.54
2018-07-22T08:05:08.305Z,971.51
2018-07-22T08:06:08.301Z,971.52
2018-07-22T08:07:08.303Z,971.50
2018-07-22T08:08:08.303Z,971.51
2018-07-22T08:09:08.310Z,971.50
2018-07-22T08:10:08.313Z,971.48
2018-07-22T08:11:08.308Z,971.48
2018-07-22T08:12:08.314Z,971.45
2018-07-22T08:13:08.312Z,971.47
2018-07-22T08:14:08.314Z,971.46
2018-07-22T08:15:08.313Z,971.49
2018-07-22T08:16:08.314Z,971.49
2018-07-22T08:17:08.316Z,971.49
2018-07-22T08:18:08.321Z,971.50
2018-07-22T08:19:08.368Z,971.51
2018-07-22T08:20:08.320Z,971.51
2018-07-22T08:21:08.326Z,971.48
2018-07-22T08:22:08.334Z,971.48
2018-07-22T08:23:08.325Z,971.42
2018-07-22T08:24:08.330Z,971.48
2018-07-22T08:25:08.328Z,971.50
2018-07-22T08:26:08.397Z,971.45
2018-07-22T08:27:08.330Z,971.45
2018-07-22T08:28:08.341Z,971.41
2018-07-22T08:29:08.331Z,971.43
2018-07-22T08:30:08.334Z,971.40
2018-07-22T08:31:08.336Z,971.43
2018-07-22T08:32:08.340Z,971.39
2018-07-22T08:33:08.337Z,971.44
2018-07-22T08:34:08.341Z,971.44
2018-07-22T08:35:08.337Z,971.45
2018-07-22T08:36:08.335Z,971.47
2018-07-22T08:37:08.339Z,971.48
2018-07-22T08:38:08.337Z,971.48
2018-07-22T08:39:08.340Z,971.47
2018-07-22T08:40:08.341Z,971.47
2018-07-22T08:41:08.359Z,971.51
2018-07-22T08:42:08.341Z,971.50
2018-07-22T08:43:08.353Z,971.45
2018-07-22T08:44:08.360Z,971.48
2018-07-22T08:45:08.353Z,971.47
2018-07-22T08:46:08.346Z,971.42
2018-07-22T08:47:08.350Z,971.42
2018-07-22T08:48:08.349Z,971.47
2018-07-22T08:49:08.354Z,971.41
2018-07-22T08:50:08.354Z,971.45
2018-07-22T08:51:08.355Z,971.47
2018-07-22T08:52:08.354Z,971.46
2018-07-22T08:53:08.386Z,971.42
2018-07-22T08:54:08.358Z,971.46
2018-07-22T08:55:08.363Z,971.47
2018-07-22T08:56:08.366Z,971.51
2018-07-22T08:57:08.360Z,971.52
2018-07-22T08:58:08.367Z,971.51
2018-07-22T08:59:08.366Z,971.54
2018-07-22T09:00:08.365Z,971.48
2018-07-22T09:01:08.370Z,971.53
2018-07-22T09:02:08.368Z,971.55
2018-07-22T09:03:08.372Z,971.56
2018-07-22T09:04:08.375Z,971.55
2018-07-22T09:05:08.374Z,971.54
2018-07-22T09:06:08.375Z,971.50
2018-07-22T09:07:08.376Z,971.52
2018-07-22T09:08:08.408Z,971.56
2018-07-22T09:09:08.378Z,971.59
2018-07-22T09:10:08.379Z,971.57
2018-07-22T09:11:08.380Z,971.55
2018-07-22T09:12:08.388Z,971.61
2018-07-22T09:13:08.389Z,971.57
2018-07-22T09:14:08.387Z,971.58
2018-07-22T09:15:08.390Z,971.59
2018-07-22T09:16:08.398Z,971.64
2018-07-22T09:17:08.391Z,971.65
2018-07-22T09:18:08.513Z,971.60
2018-07-22T09:19:08.396Z,971.58
2018-07-22T09:20:08.398Z,971.58
2018-07-22T09:21:08.404Z,971.58
2018-07-22T09:22:08.400Z,971.63
2018-07-22T09:23:08.401Z,971.58
2018-07-22T09:24:08.402Z,971.58
2018-07-22T09:25:08.404Z,971.64
2018-07-22T09:26:08.404Z,971.63
2018-07-22T09:27:08.476Z,971.63
2018-07-22T09:28:08.406Z,971.61
2018-07-22T09:29:08.409Z,971.60
2018-07-22T09:30:08.415Z,971.62
2018-07-22T09:31:08.416Z,971.60
2018-07-22T09:32:08.420Z,971.58
2018-07-22T09:33:08.419Z,971.65
2018-07-22T09:34:08.426Z,971.60
2018-07-22T09:35:08.418Z,971.61
2018-07-22T09:36:08.497Z,971.64
2018-07-22T09:37:08.421Z,971.62
2018-07-22T09:38:08.422Z,971.63
2018-07-22T09:39:08.424Z,971.61
2018-07-22T09:40:08.426Z,971.59
2018-07-22T09:41:08.429Z,971.59
2018-07-22T09:42:08.430Z,971.58
2018-07-22T09:43:08.427Z,971.55
2018-07-22T09:44:08.433Z,971.54
2018-07-22T09:45:08.430Z,971.57
2018-07-22T09:46:08.431Z,971.56
2018-07-22T09:47:08.434Z,971.54
2018-07-22T09:48:08.463Z,971.55
2018-07-22T09:49:08.439Z,971.52
2018-07-22T09:50:08.437Z,971.54
2018-07-22T09:51:08.439Z,971.53
2018-07-22T09:52:08.447Z,971.58
2018-07-22T09:53:08.446Z,971.55
2018-07-22T09:54:08.443Z,971.58
2018-07-22T09:55:08.443Z,971.60
2018-07-22T09:56:08.443Z,971.58
2018-07-22T09:57:08.454Z,971.50
2018-07-22T09:58:08.444Z,971.56
2018-07-22T09:59:08.471Z,971.55
2018-07-22T10:00:08.456Z,971.58
2018-07-22T10:01:08.449Z,971.59
2018-07-22T10:02:08.450Z,971.57
2018-07-22T10:03:08.455Z,971.55
2018-07-22T10:04:08.458Z,971.57
2018-07-22T10:05:08.454Z,971.58
2018-07-22T10:06:08.456Z,971.56
2018-07-22T10:07:08.456Z,971.54
2018-07-22T10:08:08.457Z,971.54
2018-07-22T10:09:08.462Z,971.55
2018-07-22T10:10:08.461Z,971.55
2018-07-22T10:11:08.475Z,971.49
2018-07-22T10:12:08.463Z,971.51
2018-07-22T10:13:08.463Z,971.53
2018-07-22T10:14:08.475Z,971.51
2018-07-22T10:15:08.468Z,971.50
2018-07-22T10:16:08.468Z,971.50
2018-07-22T10:17:08.477Z,971.48
2018-07-22T10:18:08.474Z,971.53
2018-07-22T10:19:08.473Z,971.49
2018-07-22T10:20:08.476Z,971.51
2018-07-22T10:21:08.478Z,971.48
2018-07-22T10:22:08.495Z,971.51
2018-07-22T10:23:08.480Z,971.52
2018-07-22T10:24:08.481Z,971.48
2018-07-22T10:25:08.483Z,971.49
2018-07-22T10:26:08.489Z,971.48
2018-07-22T10:27:08.491Z,971.44
2018-07-22T10:28:08.492Z,971.48
2018-07-22T10:29:08.493Z,971.42
2018-07-22T10:30:08.493Z,971.37
2018-07-22T10:31:08.494Z,971.37
2018-07-22T10:32:08.499Z,971.38
2018-07-22T10:33:08.498Z,971.37
2018-07-22T10:34:08.505Z,971.33
2018-07-22T10:35:08.502Z,971.32
2018-07-22T10:36:08.508Z,971.35
2018-07-22T10:37:08.510Z,971.32
2018-07-22T10:38:08.508Z,971.32
2018-07-22T10:39:08.516Z,971.32
2018-07-22T10:40:08.513Z,971.28
2018-07-22T10:41:08.517Z,971.28
2018-07-22T10:42:08.532Z,971.27
2018-07-22T10:43:08.552Z,971.27
2018-07-22T10:44:08.521Z,971.32
2018-07-22T10:45:08.526Z,971.32
2018-07-22T10:46:08.530Z,971.31
2018-07-22T10:47:08.529Z,971.32
2018-07-22T10:48:08.541Z,971.33
2018-07-22T10:49:08.536Z,971.31
2018-07-22T10:50:08.539Z,971.33
2018-07-22T10:51:08.548Z,971.34
2018-07-22T10:52:08.551Z,971.32
2018-07-22T10:53:08.549Z,971.34
2018-07-22T10:54:08.552Z,971.30
2018-07-22T10:55:08.555Z,971.32
2018-07-22T10:56:08.553Z,971.26
2018-07-22T10:57:08.557Z,971.30
2018-07-22T10:58:08.560Z,971.30
2018-07-22T10:59:08.561Z,971.30
2018-07-22T11:00:08.563Z,971.28
2018-07-22T11:01:08.574Z,971.26
2018-07-22T11:02:08.577Z,971.24
2018-07-22T11:03:08.650Z,971.24
2018-07-22T11:04:08.583Z,971.24
2018-07-22T11:05:08.584Z,971.22
2018-07-22T11:06:08.587Z,971.21
2018-07-22T11:07:08.585Z,971.24
2018-07-22T11:08:08.586Z,971.22
2018-07-22T11:09:08.591Z,971.26
2018-07-22T11:10:08.595Z,971.20
2018-07-22T11:11:08.599Z,971.25
2018-07-22T11:12:08.602Z,971.21
2018-07-22T11:13:08.605Z,971.29
2018-07-22T11:14:08.606Z,971.27
2018-07-22T11:15:08.606Z,971.32
2018-07-22T11:16:08.609Z,971.26
2018-07-22T11:17:08.608Z,971.27
2018-07-22T11:18:08.615Z,971.26
2018-07-22T11:19:08.622Z,971.27
2018-07-22T11:20:08.615Z,971.28
2018-07-22T11:21:08.639Z,971.28
2018-07-22T11:22:08.624Z,971.25
2018-07-22T11:23:08.629Z,971.26
2018-07-22T11:24:08.625Z,971.26
2018-07-22T11:25:08.626Z,971.27
2018-07-22T11:26:08.629Z,971.27
2018-07-22T11:27:08.631Z,971.29
2018-07-22T11:28:08.632Z,971.28
2018-07-22T11:29:08.735Z,971.26
2018-07-22T11:30:08.636Z,971.22
2018-07-22T11:31:08.644Z,971.24
2018-07-22T11:32:08.643Z,971.22
2018-07-22T11:33:08.647Z,971.26
2018-07-22T11:34:08.645Z,971.21
2018-07-22T11:35:08.652Z,971.20
2018-07-22T11:36:08.689Z,971.16
2018-07-22T11:37:08.657Z,971.17
2018-07-22T11:38:08.654Z,971.21
2018-07-22T11:39:08.654Z,971.20
2018-07-22T11:40:08.658Z,971.15
2018-07-22T11:41:08.657Z,971.18
2018-07-22T11:42:08.663Z,971.23
2018-07-22T11:43:08.660Z,971.18
2018-07-22T11:44:08.662Z,971.16
2018-07-22T11:45:08.665Z,971.17
2018-07-22T11:46:08.667Z,971.21
2018-07-22T11:47:08.667Z,971.19
2018-07-22T11:48:08.673Z,971.20
2018-07-22T11:49:08.671Z,971.16
2018-07-22T11:50:08.674Z,971.15
2018-07-22T11:51:08.674Z,971.17
2018-07-22T11:52:08.682Z,971.18
2018-07-22T11:53:08.678Z,971.19
2018-07-22T11:54:08.684Z,971.12
2018-07-22T11:55:08.687Z,971.11
2018-07-22T11:56:08.685Z,971.14
2018-07-22T11:57:08.690Z,971.08
2018-07-22T11:58:08.692Z,971.13
2018-07-22T11:59:08.690Z,971.11
2018-07-22T12:00:08.759Z,971.15
2018-07-22T12:01:08.691Z,971.12
2018-07-22T12:02:08.697Z,971.13
2018-07-22T12:03:08.695Z,971.10
2018-07-22T12:04:08.697Z,971.12
2018-07-22T12:05:08.705Z,971.13
2018-07-22T12:06:08.703Z,971.13
2018-07-22T12:07:08.703Z,971.17
2018-07-22T12:08:08.711Z,971.12
2018-07-22T12:09:08.709Z,971.12
2018-07-22T12:10:08.713Z,971.12
2018-07-22T12:11:08.717Z,971.13
2018-07-22T12:12:08.751Z,971.08
2018-07-22T12:13:08.713Z,971.13
2018-07-22T12:14:08.714Z,971.13
2018-07-22T12:15:08.718Z,971.14
2018-07-22T12:16:08.719Z,971.12
2018-07-22T12:17:08.721Z,971.10
2018-07-22T12:18:08.720Z,971.11
2018-07-22T12:19:08.732Z,971.05
2018-07-22T12:20:08.728Z,971.05
2018-07-22T12:21:08.727Z,971.08
2018-07-22T12:22:08.729Z,971.02
2018-07-22T12:23:08.736Z,970.97
2018-07-22T12:24:08.735Z,971.00
2018-07-22T12:25:08.740Z,971.00
2018-07-22T12:26:08.741Z,970.99
2018-07-22T12:27:08.742Z,970.99
2018-07-22T12:28:08.816Z,970.94